ウィーン の空港の天気 - METARとTAF

ウィーン国際空港 ( LOWW / VIE ) - オーストリア ウィーン
飛行場実況気象(Metar)
観測時間04/27 18:20 CEST (04/27 16:20 UTC)
風向・風速北西 3m/s
視程8000m
天気現象弱い雨
少しの雲 雲底高度 430m
全天の4割程度の雲 雲底高度 550m
全天の8割程度の雲 雲底高度 670m
気温7℃
湿度93%
気圧1013hPa
METARLOWW 271620Z 31006KT 8000 -RA FEW014 SCT018 BKN022 07/06 Q1013 NOSIG
過去の天気等 Google飛行場航空写真 Wunderground天気予報

過去48時間のMETAR

飛行場予報(TAF)
発表時間: 4/27 13:15 CEST (4/27 11:15 UTC)
予報対象時間: 27日14時 CEST ~ 28日20時 CEST
風向・風速北西 6m/s
視程10km以上
天気現象弱い雨
全天の4割程度の雲 雲底高度 370m
全天の8割程度の雲 雲底高度 760m
27日20時 CEST ~ 28日13時 CEST に一時的に
視程5,000m
天気現象
全天の8割程度の雲 雲底高度 240m
全天を覆う雲 雲底高度 460m
TAF LOWW 271115Z 2712/2818 32012KT 9999 -RA SCT012 BKN025 TX08/2714Z TN04/2806Z
TEMPO 2718/2811 5000 RA BKN008 OVC015